sensor_id;sensor_type;location;lat;lon;timestamp;temperature;humidity
34492;DHT22;20737;49.908;8.126;2022-12-07T00:01:49;2.60;99.90
34492;DHT22;20737;49.908;8.126;2022-12-07T00:04:17;2.60;99.90
34492;DHT22;20737;49.908;8.126;2022-12-07T00:06:46;2.60;99.90
34492;DHT22;20737;49.908;8.126;2022-12-07T00:09:15;2.60;99.90
34492;DHT22;20737;49.908;8.126;2022-12-07T00:11:42;2.60;99.90
34492;DHT22;20737;49.908;8.126;2022-12-07T00:14:13;2.60;99.90
34492;DHT22;20737;49.908;8.126;2022-12-07T00:16:44;2.60;99.90
34492;DHT22;20737;49.908;8.126;2022-12-07T00:19:11;2.60;99.90
34492;DHT22;20737;49.908;8.126;2022-12-07T00:21:39;2.60;99.90
34492;DHT22;20737;49.908;8.126;2022-12-07T00:24:06;2.60;99.90
34492;DHT22;20737;49.908;8.126;2022-12-07T00:26:34;2.50;99.90
34492;DHT22;20737;49.908;8.126;2022-12-07T00:29:03;2.60;99.90
34492;DHT22;20737;49.908;8.126;2022-12-07T00:31:33;2.60;99.90
34492;DHT22;20737;49.908;8.126;2022-12-07T00:34:04;2.60;99.90
34492;DHT22;20737;49.908;8.126;2022-12-07T00:36:33;2.60;99.90
34492;DHT22;20737;49.908;8.126;2022-12-07T00:39:01;2.60;99.90
34492;DHT22;20737;49.908;8.126;2022-12-07T00:41:29;2.60;99.90
34492;DHT22;20737;49.908;8.126;2022-12-07T00:43:56;2.60;99.90
34492;DHT22;20737;49.908;8.126;2022-12-07T00:46:24;2.60;99.90
34492;DHT22;20737;49.908;8.126;2022-12-07T00:48:53;2.70;99.90
34492;DHT22;20737;49.908;8.126;2022-12-07T00:51:24;2.70;99.90
34492;DHT22;20737;49.908;8.126;2022-12-07T00:53:51;2.70;99.90
34492;DHT22;20737;49.908;8.126;2022-12-07T00:56:19;2.70;99.90
34492;DHT22;20737;49.908;8.126;2022-12-07T00:58:50;2.80;99.90
34492;DHT22;20737;49.908;8.126;2022-12-07T01:01:17;2.70;99.90
34492;DHT22;20737;49.908;8.126;2022-12-07T01:03:44;2.70;99.90
34492;DHT22;20737;49.908;8.126;2022-12-07T01:06:14;2.60;99.90
34492;DHT22;20737;49.908;8.126;2022-12-07T01:08:41;2.60;99.90
34492;DHT22;20737;49.908;8.126;2022-12-07T01:11:11;2.40;99.90
34492;DHT22;20737;49.908;8.126;2022-12-07T01:13:38;2.30;99.90
34492;DHT22;20737;49.908;8.126;2022-12-07T01:16:06;2.20;99.90
34492;DHT22;20737;49.908;8.126;2022-12-07T01:18:35;2.10;99.90
34492;DHT22;20737;49.908;8.126;2022-12-07T01:21:04;2.00;99.90
34492;DHT22;20737;49.908;8.126;2022-12-07T01:23:35;1.90;99.90
34492;DHT22;20737;49.908;8.126;2022-12-07T01:26:05;1.90;99.90
34492;DHT22;20737;49.908;8.126;2022-12-07T01:28:32;1.80;99.90
34492;DHT22;20737;49.908;8.126;2022-12-07T01:31:01;1.80;99.90
34492;DHT22;20737;49.908;8.126;2022-12-07T01:33:28;1.80;99.90
34492;DHT22;20737;49.908;8.126;2022-12-07T01:36:00;1.80;99.90
34492;DHT22;20737;49.908;8.126;2022-12-07T01:38:28;1.90;99.90
34492;DHT22;20737;49.908;8.126;2022-12-07T01:40:58;1.90;99.90
34492;DHT22;20737;49.908;8.126;2022-12-07T01:43:27;2.00;99.90
34492;DHT22;20737;49.908;8.126;2022-12-07T01:45:54;2.00;99.90
34492;DHT22;20737;49.908;8.126;2022-12-07T01:48:23;2.10;99.90
34492;DHT22;20737;49.908;8.126;2022-12-07T01:50:51;2.10;99.90
34492;DHT22;20737;49.908;8.126;2022-12-07T01:53:20;2.20;99.90
34492;DHT22;20737;49.908;8.126;2022-12-07T01:55:50;2.30;99.90
34492;DHT22;20737;49.908;8.126;2022-12-07T01:58:20;2.40;99.90
34492;DHT22;20737;49.908;8.126;2022-12-07T02:00:47;2.40;99.90
34492;DHT22;20737;49.908;8.126;2022-12-07T02:03:16;2.50;99.90
34492;DHT22;20737;49.908;8.126;2022-12-07T02:05:45;2.50;99.90
34492;DHT22;20737;49.908;8.126;2022-12-07T02:08:13;2.60;99.90
34492;DHT22;20737;49.908;8.126;2022-12-07T02:10:40;2.60;99.90
34492;DHT22;20737;49.908;8.126;2022-12-07T02:13:10;2.60;99.90
34492;DHT22;20737;49.908;8.126;2022-12-07T02:15:47;2.70;99.90
34492;DHT22;20737;49.908;8.126;2022-12-07T02:18:24;2.70;99.90
34492;DHT22;20737;49.908;8.126;2022-12-07T02:20:58;2.70;99.90
34492;DHT22;20737;49.908;8.126;2022-12-07T02:23:41;2.70;99.90
34492;DHT22;20737;49.908;8.126;2022-12-07T02:29:23;2.80;99.90
34492;DHT22;20737;49.908;8.126;2022-12-07T02:31:56;2.90;99.90
34492;DHT22;20737;49.908;8.126;2022-12-07T02:34:33;2.90;99.90
34492;DHT22;20737;49.908;8.126;2022-12-07T02:37:09;2.90;99.90
34492;DHT22;20737;49.908;8.126;2022-12-07T02:39:40;2.90;99.90
34492;DHT22;20737;49.908;8.126;2022-12-07T02:42:17;3.00;99.90
34492;DHT22;20737;49.908;8.126;2022-12-07T02:44:48;3.00;99.90
34492;DHT22;20737;49.908;8.126;2022-12-07T02:47:17;3.10;99.90
34492;DHT22;20737;49.908;8.126;2022-12-07T02:49:45;3.10;99.90
34492;DHT22;20737;49.908;8.126;2022-12-07T02:52:12;3.10;99.90
34492;DHT22;20737;49.908;8.126;2022-12-07T02:54:39;3.20;99.90
34492;DHT22;20737;49.908;8.126;2022-12-07T02:57:15;3.20;99.90
34492;DHT22;20737;49.908;8.126;2022-12-07T03:00:00;3.20;99.90
34492;DHT22;20737;49.908;8.126;2022-12-07T03:02:35;3.20;99.90
34492;DHT22;20737;49.908;8.126;2022-12-07T03:05:20;3.20;99.90
34492;DHT22;20737;49.908;8.126;2022-12-07T03:07:59;3.30;99.90
34492;DHT22;20737;49.908;8.126;2022-12-07T03:10:33;3.30;99.90
34492;DHT22;20737;49.908;8.126;2022-12-07T03:13:05;3.30;99.90
34492;DHT22;20737;49.908;8.126;2022-12-07T03:15:41;3.40;99.90
34492;DHT22;20737;49.908;8.126;2022-12-07T03:18:10;3.40;99.90
34492;DHT22;20737;49.908;8.126;2022-12-07T03:20:38;3.40;99.90
34492;DHT22;20737;49.908;8.126;2022-12-07T03:23:08;3.50;99.90
34492;DHT22;20737;49.908;8.126;2022-12-07T03:25:40;3.50;99.90
34492;DHT22;20737;49.908;8.126;2022-12-07T03:28:08;3.50;99.90
34492;DHT22;20737;49.908;8.126;2022-12-07T03:30:42;3.50;99.90
34492;DHT22;20737;49.908;8.126;2022-12-07T03:33:14;3.60;99.90
34492;DHT22;20737;49.908;8.126;2022-12-07T03:35:45;3.60;99.90
34492;DHT22;20737;49.908;8.126;2022-12-07T03:38:19;3.60;99.90
34492;DHT22;20737;49.908;8.126;2022-12-07T03:40:52;3.60;99.90
34492;DHT22;20737;49.908;8.126;2022-12-07T03:43:20;3.60;99.90
34492;DHT22;20737;49.908;8.126;2022-12-07T03:45:56;3.60;99.90
34492;DHT22;20737;49.908;8.126;2022-12-07T03:48:28;3.60;99.90
34492;DHT22;20737;49.908;8.126;2022-12-07T03:51:03;3.60;99.90
34492;DHT22;20737;49.908;8.126;2022-12-07T03:53:36;3.60;99.90
34492;DHT22;20737;49.908;8.126;2022-12-07T03:56:05;3.70;99.90
34492;DHT22;20737;49.908;8.126;2022-12-07T03:58:34;3.70;99.90
34492;DHT22;20737;49.908;8.126;2022-12-07T04:01:02;3.70;99.90
34492;DHT22;20737;49.908;8.126;2022-12-07T04:03:29;3.70;99.90
34492;DHT22;20737;49.908;8.126;2022-12-07T04:05:59;3.70;99.90
34492;DHT22;20737;49.908;8.126;2022-12-07T04:08:26;3.70;99.90
34492;DHT22;20737;49.908;8.126;2022-12-07T04:10:52;3.80;99.90
34492;DHT22;20737;49.908;8.126;2022-12-07T04:13:22;3.70;99.90
34492;DHT22;20737;49.908;8.126;2022-12-07T04:15:49;3.70;99.90
34492;DHT22;20737;49.908;8.126;2022-12-07T04:18:17;3.80;99.90
34492;DHT22;20737;49.908;8.126;2022-12-07T04:20:45;3.80;99.90
34492;DHT22;20737;49.908;8.126;2022-12-07T04:23:12;3.70;99.90
34492;DHT22;20737;49.908;8.126;2022-12-07T04:25:38;3.70;99.90
34492;DHT22;20737;49.908;8.126;2022-12-07T04:28:05;3.70;99.90
34492;DHT22;20737;49.908;8.126;2022-12-07T04:30:32;3.70;99.90
34492;DHT22;20737;49.908;8.126;2022-12-07T04:33:00;3.70;99.90
34492;DHT22;20737;49.908;8.126;2022-12-07T04:35:28;3.70;99.90
34492;DHT22;20737;49.908;8.126;2022-12-07T04:37:55;3.80;99.90
34492;DHT22;20737;49.908;8.126;2022-12-07T04:40:22;3.80;99.90
34492;DHT22;20737;49.908;8.126;2022-12-07T04:42:48;3.80;99.90
34492;DHT22;20737;49.908;8.126;2022-12-07T04:45:15;3.80;99.90
34492;DHT22;20737;49.908;8.126;2022-12-07T04:47:42;3.80;99.90
34492;DHT22;20737;49.908;8.126;2022-12-07T04:50:09;3.80;99.90
34492;DHT22;20737;49.908;8.126;2022-12-07T04:52:37;3.80;99.90
34492;DHT22;20737;49.908;8.126;2022-12-07T04:55:05;3.90;99.90
34492;DHT22;20737;49.908;8.126;2022-12-07T04:57:31;3.90;99.90
34492;DHT22;20737;49.908;8.126;2022-12-07T04:59:58;3.90;99.90
34492;DHT22;20737;49.908;8.126;2022-12-07T05:02:25;4.00;99.90
34492;DHT22;20737;49.908;8.126;2022-12-07T05:04:52;4.00;99.90
34492;DHT22;20737;49.908;8.126;2022-12-07T05:07:18;3.90;99.90
34492;DHT22;20737;49.908;8.126;2022-12-07T05:09:46;3.90;99.90
34492;DHT22;20737;49.908;8.126;2022-12-07T05:12:15;3.90;99.90
34492;DHT22;20737;49.908;8.126;2022-12-07T05:14:42;4.00;99.90
34492;DHT22;20737;49.908;8.126;2022-12-07T05:17:08;4.00;99.90
34492;DHT22;20737;49.908;8.126;2022-12-07T05:19:36;4.00;99.90
34492;DHT22;20737;49.908;8.126;2022-12-07T05:22:03;3.90;99.90
34492;DHT22;20737;49.908;8.126;2022-12-07T05:24:30;3.90;99.90
34492;DHT22;20737;49.908;8.126;2022-12-07T05:26:58;3.90;99.90
34492;DHT22;20737;49.908;8.126;2022-12-07T05:29:25;3.90;99.90
34492;DHT22;20737;49.908;8.126;2022-12-07T05:31:51;3.90;99.90
34492;DHT22;20737;49.908;8.126;2022-12-07T05:34:18;3.90;99.90
34492;DHT22;20737;49.908;8.126;2022-12-07T05:36:45;3.90;99.90
34492;DHT22;20737;49.908;8.126;2022-12-07T05:39:12;3.90;99.90
34492;DHT22;20737;49.908;8.126;2022-12-07T05:41:39;3.90;99.90
34492;DHT22;20737;49.908;8.126;2022-12-07T05:44:24;4.00;99.90
34492;DHT22;20737;49.908;8.126;2022-12-07T05:46:51;4.00;99.90
34492;DHT22;20737;49.908;8.126;2022-12-07T05:49:18;4.00;99.90
34492;DHT22;20737;49.908;8.126;2022-12-07T05:51:44;4.10;99.90
34492;DHT22;20737;49.908;8.126;2022-12-07T05:54:11;4.10;99.90
34492;DHT22;20737;49.908;8.126;2022-12-07T05:56:38;4.10;99.90
34492;DHT22;20737;49.908;8.126;2022-12-07T05:59:05;4.10;99.90
34492;DHT22;20737;49.908;8.126;2022-12-07T06:01:52;4.10;99.90
34492;DHT22;20737;49.908;8.126;2022-12-07T06:04:20;4.20;99.90
34492;DHT22;20737;49.908;8.126;2022-12-07T06:06:47;4.20;99.90
34492;DHT22;20737;49.908;8.126;2022-12-07T06:09:15;4.20;99.90
34492;DHT22;20737;49.908;8.126;2022-12-07T06:11:44;4.20;99.90
34492;DHT22;20737;49.908;8.126;2022-12-07T06:14:28;4.20;99.90
34492;DHT22;20737;49.908;8.126;2022-12-07T06:16:56;4.20;99.90
34492;DHT22;20737;49.908;8.126;2022-12-07T06:19:23;4.30;99.90
34492;DHT22;20737;49.908;8.126;2022-12-07T06:21:51;4.30;99.90
34492;DHT22;20737;49.908;8.126;2022-12-07T06:24:21;4.30;99.90
34492;DHT22;20737;49.908;8.126;2022-12-07T06:26:48;4.30;99.90
34492;DHT22;20737;49.908;8.126;2022-12-07T06:29:16;4.30;99.90
34492;DHT22;20737;49.908;8.126;2022-12-07T06:31:44;4.40;99.90
34492;DHT22;20737;49.908;8.126;2022-12-07T06:34:13;4.40;99.90
34492;DHT22;20737;49.908;8.126;2022-12-07T06:36:40;4.40;99.90
34492;DHT22;20737;49.908;8.126;2022-12-07T06:39:09;4.40;99.90
34492;DHT22;20737;49.908;8.126;2022-12-07T06:41:40;4.40;99.90
34492;DHT22;20737;49.908;8.126;2022-12-07T06:44:07;4.40;99.90
34492;DHT22;20737;49.908;8.126;2022-12-07T06:46:35;4.40;99.90
34492;DHT22;20737;49.908;8.126;2022-12-07T06:49:02;4.40;99.90
34492;DHT22;20737;49.908;8.126;2022-12-07T06:51:31;4.30;99.90
34492;DHT22;20737;49.908;8.126;2022-12-07T06:53:58;4.30;99.90
34492;DHT22;20737;49.908;8.126;2022-12-07T06:56:25;4.20;99.90
34492;DHT22;20737;49.908;8.126;2022-12-07T06:58:53;4.20;99.90
34492;DHT22;20737;49.908;8.126;2022-12-07T07:01:20;4.10;99.90
34492;DHT22;20737;49.908;8.126;2022-12-07T07:03:47;4.10;99.90
34492;DHT22;20737;49.908;8.126;2022-12-07T07:06:14;4.10;99.90
34492;DHT22;20737;49.908;8.126;2022-12-07T07:08:42;4.00;99.90
34492;DHT22;20737;49.908;8.126;2022-12-07T07:11:09;3.90;99.90
34492;DHT22;20737;49.908;8.126;2022-12-07T07:13:36;3.90;99.90
34492;DHT22;20737;49.908;8.126;2022-12-07T07:16:03;3.80;99.90
34492;DHT22;20737;49.908;8.126;2022-12-07T07:18:30;3.80;99.90
34492;DHT22;20737;49.908;8.126;2022-12-07T07:20:57;3.80;99.90
34492;DHT22;20737;49.908;8.126;2022-12-07T07:23:24;3.80;99.90
34492;DHT22;20737;49.908;8.126;2022-12-07T07:25:52;3.80;99.90
34492;DHT22;20737;49.908;8.126;2022-12-07T07:28:21;3.80;99.90
34492;DHT22;20737;49.908;8.126;2022-12-07T07:30:48;3.80;99.90
34492;DHT22;20737;49.908;8.126;2022-12-07T07:33:29;3.90;99.90
34492;DHT22;20737;49.908;8.126;2022-12-07T07:36:01;3.90;99.90
34492;DHT22;20737;49.908;8.126;2022-12-07T07:38:32;3.90;99.90
34492;DHT22;20737;49.908;8.126;2022-12-07T07:41:00;4.00;99.90
34492;DHT22;20737;49.908;8.126;2022-12-07T07:43:27;4.00;99.90
34492;DHT22;20737;49.908;8.126;2022-12-07T07:45:54;4.00;99.90
34492;DHT22;20737;49.908;8.126;2022-12-07T07:48:21;4.10;99.90
34492;DHT22;20737;49.908;8.126;2022-12-07T07:50:52;4.10;99.90
34492;DHT22;20737;49.908;8.126;2022-12-07T07:53:19;4.20;99.90
34492;DHT22;20737;49.908;8.126;2022-12-07T07:55:51;4.20;99.90
34492;DHT22;20737;49.908;8.126;2022-12-07T07:58:20;4.20;99.90
34492;DHT22;20737;49.908;8.126;2022-12-07T08:00:51;4.20;99.90
34492;DHT22;20737;49.908;8.126;2022-12-07T08:03:18;4.30;99.90
34492;DHT22;20737;49.908;8.126;2022-12-07T08:05:48;4.30;99.90
34492;DHT22;20737;49.908;8.126;2022-12-07T08:08:15;4.30;99.90
34492;DHT22;20737;49.908;8.126;2022-12-07T08:10:44;4.40;99.90
34492;DHT22;20737;49.908;8.126;2022-12-07T08:13:15;4.40;99.90
34492;DHT22;20737;49.908;8.126;2022-12-07T08:15:44;4.40;99.90
34492;DHT22;20737;49.908;8.126;2022-12-07T08:18:12;4.60;99.90
34492;DHT22;20737;49.908;8.126;2022-12-07T08:20:39;4.60;99.90
34492;DHT22;20737;49.908;8.126;2022-12-07T08:23:07;4.70;99.90
34492;DHT22;20737;49.908;8.126;2022-12-07T08:25:34;4.70;99.90
34492;DHT22;20737;49.908;8.126;2022-12-07T08:28:04;4.70;99.90
34492;DHT22;20737;49.908;8.126;2022-12-07T08:30:31;4.70;99.90
34492;DHT22;20737;49.908;8.126;2022-12-07T08:33:00;4.70;99.90
34492;DHT22;20737;49.908;8.126;2022-12-07T08:35:27;4.60;99.90
34492;DHT22;20737;49.908;8.126;2022-12-07T08:37:54;4.60;99.90
34492;DHT22;20737;49.908;8.126;2022-12-07T08:40:23;4.60;99.90
34492;DHT22;20737;49.908;8.126;2022-12-07T08:42:52;4.70;99.90
34492;DHT22;20737;49.908;8.126;2022-12-07T08:45:20;4.70;99.90
34492;DHT22;20737;49.908;8.126;2022-12-07T08:47:52;4.70;99.90
34492;DHT22;20737;49.908;8.126;2022-12-07T08:50:26;4.70;99.90
34492;DHT22;20737;49.908;8.126;2022-12-07T08:52:58;4.60;99.90
34492;DHT22;20737;49.908;8.126;2022-12-07T08:55:25;4.60;99.90
34492;DHT22;20737;49.908;8.126;2022-12-07T08:57:59;4.50;99.90
34492;DHT22;20737;49.908;8.126;2022-12-07T09:00:29;4.50;99.90
34492;DHT22;20737;49.908;8.126;2022-12-07T09:02:58;4.50;99.90
34492;DHT22;20737;49.908;8.126;2022-12-07T09:05:26;4.40;99.90
34492;DHT22;20737;49.908;8.126;2022-12-07T09:07:56;4.40;99.90
34492;DHT22;20737;49.908;8.126;2022-12-07T09:10:24;4.50;99.90
34492;DHT22;20737;49.908;8.126;2022-12-07T09:12:51;4.50;99.90
34492;DHT22;20737;49.908;8.126;2022-12-07T09:15:18;4.70;99.90
34492;DHT22;20737;49.908;8.126;2022-12-07T09:17:45;4.90;99.90
34492;DHT22;20737;49.908;8.126;2022-12-07T09:20:12;5.30;99.90
34492;DHT22;20737;49.908;8.126;2022-12-07T09:22:43;5.70;99.90
34492;DHT22;20737;49.908;8.126;2022-12-07T09:25:10;5.90;99.90
34492;DHT22;20737;49.908;8.126;2022-12-07T09:27:37;6.20;99.90
34492;DHT22;20737;49.908;8.126;2022-12-07T09:30:05;6.40;99.90
34492;DHT22;20737;49.908;8.126;2022-12-07T09:32:32;6.70;99.90
34492;DHT22;20737;49.908;8.126;2022-12-07T09:34:59;7.00;99.90
34492;DHT22;20737;49.908;8.126;2022-12-07T09:37:26;7.20;99.90
34492;DHT22;20737;49.908;8.126;2022-12-07T09:39:54;7.40;99.90
34492;DHT22;20737;49.908;8.126;2022-12-07T09:42:28;7.50;99.90
34492;DHT22;20737;49.908;8.126;2022-12-07T09:44:56;7.60;99.90
34492;DHT22;20737;49.908;8.126;2022-12-07T09:47:24;7.70;99.90
34492;DHT22;20737;49.908;8.126;2022-12-07T09:49:51;7.60;99.90
34492;DHT22;20737;49.908;8.126;2022-12-07T09:52:19;7.80;99.90
34492;DHT22;20737;49.908;8.126;2022-12-07T09:54:49;8.80;99.90
34492;DHT22;20737;49.908;8.126;2022-12-07T09:57:20;9.50;99.90
34492;DHT22;20737;49.908;8.126;2022-12-07T09:59:49;9.70;99.90
34492;DHT22;20737;49.908;8.126;2022-12-07T10:02:26;10.10;99.90
34492;DHT22;20737;49.908;8.126;2022-12-07T10:04:54;10.00;99.90
34492;DHT22;20737;49.908;8.126;2022-12-07T10:07:21;9.70;99.90
34492;DHT22;20737;49.908;8.126;2022-12-07T10:09:48;9.00;99.90
34492;DHT22;20737;49.908;8.126;2022-12-07T10:12:15;8.70;99.90
34492;DHT22;20737;49.908;8.126;2022-12-07T10:14:54;8.40;99.90
34492;DHT22;20737;49.908;8.126;2022-12-07T10:17:31;8.60;99.90
34492;DHT22;20737;49.908;8.126;2022-12-07T10:20:16;10.20;99.90
34492;DHT22;20737;49.908;8.126;2022-12-07T10:22:58;10.80;99.90
34492;DHT22;20737;49.908;8.126;2022-12-07T10:25:31;12.60;99.90
34492;DHT22;20737;49.908;8.126;2022-12-07T10:28:01;14.80;99.90
34492;DHT22;20737;49.908;8.126;2022-12-07T10:30:30;16.20;98.50
34492;DHT22;20737;49.908;8.126;2022-12-07T10:32:59;16.10;95.20
34492;DHT22;20737;49.908;8.126;2022-12-07T10:35:29;15.30;97.00
34492;DHT22;20737;49.908;8.126;2022-12-07T10:37:57;15.60;97.10
34492;DHT22;20737;49.908;8.126;2022-12-07T10:40:32;16.60;94.10
34492;DHT22;20737;49.908;8.126;2022-12-07T10:43:17;16.80;91.20
34492;DHT22;20737;49.908;8.126;2022-12-07T10:46:07;16.80;91.00
34492;DHT22;20737;49.908;8.126;2022-12-07T10:48:41;15.80;92.30
34492;DHT22;20737;49.908;8.126;2022-12-07T10:51:12;15.90;93.40
34492;DHT22;20737;49.908;8.126;2022-12-07T10:53:52;16.00;93.00
34492;DHT22;20737;49.908;8.126;2022-12-07T10:56:43;16.30;91.90
34492;DHT22;20737;49.908;8.126;2022-12-07T10:59:34;15.10;94.30
34492;DHT22;20737;49.908;8.126;2022-12-07T11:02:19;15.00;94.30
34492;DHT22;20737;49.908;8.126;2022-12-07T11:04:59;14.60;93.90
34492;DHT22;20737;49.908;8.126;2022-12-07T11:07:37;14.80;96.00
34492;DHT22;20737;49.908;8.126;2022-12-07T11:10:13;16.50;92.20
34492;DHT22;20737;49.908;8.126;2022-12-07T11:12:50;18.30;84.90
34492;DHT22;20737;49.908;8.126;2022-12-07T11:15:28;16.60;86.30
34492;DHT22;20737;49.908;8.126;2022-12-07T11:18:03;14.60;93.90
34492;DHT22;20737;49.908;8.126;2022-12-07T11:20:41;13.60;97.10
34492;DHT22;20737;49.908;8.126;2022-12-07T11:23:17;13.00;98.60
34492;DHT22;20737;49.908;8.126;2022-12-07T11:25:53;12.20;99.90
34492;DHT22;20737;49.908;8.126;2022-12-07T11:28:37;12.00;99.90
34492;DHT22;20737;49.908;8.126;2022-12-07T11:31:12;11.10;99.90
34492;DHT22;20737;49.908;8.126;2022-12-07T11:33:46;10.20;99.90
34492;DHT22;20737;49.908;8.126;2022-12-07T11:36:29;9.80;99.90
34492;DHT22;20737;49.908;8.126;2022-12-07T11:38:57;9.70;99.90
34492;DHT22;20737;49.908;8.126;2022-12-07T11:41:28;9.40;99.90
34492;DHT22;20737;49.908;8.126;2022-12-07T11:43:59;9.30;99.90
34492;DHT22;20737;49.908;8.126;2022-12-07T11:46:42;9.50;99.90
34492;DHT22;20737;49.908;8.126;2022-12-07T11:49:14;9.40;99.90
34492;DHT22;20737;49.908;8.126;2022-12-07T11:51:49;9.20;99.90
34492;DHT22;20737;49.908;8.126;2022-12-07T11:54:23;9.20;99.90
34492;DHT22;20737;49.908;8.126;2022-12-07T11:56:51;9.20;99.90
34492;DHT22;20737;49.908;8.126;2022-12-07T11:59:23;9.00;99.90
34492;DHT22;20737;49.908;8.126;2022-12-07T12:01:56;8.90;99.90
34492;DHT22;20737;49.908;8.126;2022-12-07T12:04:34;8.80;99.90
34492;DHT22;20737;49.908;8.126;2022-12-07T12:07:06;8.70;99.90
34492;DHT22;20737;49.908;8.126;2022-12-07T12:09:39;8.50;99.90
34492;DHT22;20737;49.908;8.126;2022-12-07T12:12:29;8.40;99.90
34492;DHT22;20737;49.908;8.126;2022-12-07T12:15:13;8.20;99.90
34492;DHT22;20737;49.908;8.126;2022-12-07T12:17:54;8.30;99.90
34492;DHT22;20737;49.908;8.126;2022-12-07T12:20:28;8.50;99.90
34492;DHT22;20737;49.908;8.126;2022-12-07T12:23:00;8.60;99.90
34492;DHT22;20737;49.908;8.126;2022-12-07T12:25:29;8.80;99.90
34492;DHT22;20737;49.908;8.126;2022-12-07T12:27:58;9.00;99.90
34492;DHT22;20737;49.908;8.126;2022-12-07T12:30:34;9.20;99.90
34492;DHT22;20737;49.908;8.126;2022-12-07T12:33:06;9.60;99.90
34492;DHT22;20737;49.908;8.126;2022-12-07T12:35:42;9.40;99.90
34492;DHT22;20737;49.908;8.126;2022-12-07T12:38:31;9.00;99.90
34492;DHT22;20737;49.908;8.126;2022-12-07T12:41:00;8.60;99.90
34492;DHT22;20737;49.908;8.126;2022-12-07T12:43:47;8.50;99.90
34492;DHT22;20737;49.908;8.126;2022-12-07T12:46:49;8.50;99.90
34492;DHT22;20737;49.908;8.126;2022-12-07T12:58:40;10.70;99.90
34492;DHT22;20737;49.908;8.126;2022-12-07T13:01:38;11.50;99.90
34492;DHT22;20737;49.908;8.126;2022-12-07T13:07:53;12.50;99.90
34492;DHT22;20737;49.908;8.126;2022-12-07T13:13:32;9.70;99.90
34492;DHT22;20737;49.908;8.126;2022-12-07T13:22:58;11.20;99.90
34492;DHT22;20737;49.908;8.126;2022-12-07T13:25:49;12.30;99.90
34492;DHT22;20737;49.908;8.126;2022-12-07T13:28:18;12.20;99.90
34492;DHT22;20737;49.908;8.126;2022-12-07T13:31:00;11.80;99.90
34492;DHT22;20737;49.908;8.126;2022-12-07T13:33:29;10.90;99.90
34492;DHT22;20737;49.908;8.126;2022-12-07T13:35:58;10.30;99.90
34492;DHT22;20737;49.908;8.126;2022-12-07T13:38:29;10.20;99.90
34492;DHT22;20737;49.908;8.126;2022-12-07T13:41:01;10.20;99.90
34492;DHT22;20737;49.908;8.126;2022-12-07T13:43:28;10.20;99.90
34492;DHT22;20737;49.908;8.126;2022-12-07T13:46:00;10.40;99.90
34492;DHT22;20737;49.908;8.126;2022-12-07T13:48:31;10.10;99.90
34492;DHT22;20737;49.908;8.126;2022-12-07T13:51:00;10.00;99.90
34492;DHT22;20737;49.908;8.126;2022-12-07T13:53:29;10.00;99.90
34492;DHT22;20737;49.908;8.126;2022-12-07T13:55:57;9.60;99.90
34492;DHT22;20737;49.908;8.126;2022-12-07T13:58:24;9.00;99.90
34492;DHT22;20737;49.908;8.126;2022-12-07T14:00:51;8.60;99.90
34492;DHT22;20737;49.908;8.126;2022-12-07T14:03:30;8.30;99.90
34492;DHT22;20737;49.908;8.126;2022-12-07T14:06:13;8.10;99.90
34492;DHT22;20737;49.908;8.126;2022-12-07T14:08:42;7.80;99.90
34492;DHT22;20737;49.908;8.126;2022-12-07T14:11:14;7.70;99.90
34492;DHT22;20737;49.908;8.126;2022-12-07T14:13:51;7.60;99.90
34492;DHT22;20737;49.908;8.126;2022-12-07T14:16:23;7.60;99.90
34492;DHT22;20737;49.908;8.126;2022-12-07T14:18:51;7.60;99.90
34492;DHT22;20737;49.908;8.126;2022-12-07T14:21:21;7.60;99.90
34492;DHT22;20737;49.908;8.126;2022-12-07T14:24:10;7.50;99.90
34492;DHT22;20737;49.908;8.126;2022-12-07T14:26:38;7.40;99.90
34492;DHT22;20737;49.908;8.126;2022-12-07T14:29:21;7.30;99.90
34492;DHT22;20737;49.908;8.126;2022-12-07T14:31:48;7.20;99.90
34492;DHT22;20737;49.908;8.126;2022-12-07T14:34:15;7.10;99.90
34492;DHT22;20737;49.908;8.126;2022-12-07T14:36:41;7.10;99.90
34492;DHT22;20737;49.908;8.126;2022-12-07T14:39:09;7.00;99.90
34492;DHT22;20737;49.908;8.126;2022-12-07T14:41:36;7.00;99.90
34492;DHT22;20737;49.908;8.126;2022-12-07T14:44:18;7.00;99.90
34492;DHT22;20737;49.908;8.126;2022-12-07T14:46:45;7.10;99.90
34492;DHT22;20737;49.908;8.126;2022-12-07T14:49:12;7.00;99.90
34492;DHT22;20737;49.908;8.126;2022-12-07T14:51:39;7.00;99.90
34492;DHT22;20737;49.908;8.126;2022-12-07T14:54:12;7.00;99.90
34492;DHT22;20737;49.908;8.126;2022-12-07T14:56:41;6.90;99.90
34492;DHT22;20737;49.908;8.126;2022-12-07T14:59:09;6.90;99.90
34492;DHT22;20737;49.908;8.126;2022-12-07T15:01:36;6.80;99.90
34492;DHT22;20737;49.908;8.126;2022-12-07T15:04:03;6.70;99.90
34492;DHT22;20737;49.908;8.126;2022-12-07T15:06:29;6.60;99.90
34492;DHT22;20737;49.908;8.126;2022-12-07T15:08:56;6.60;99.90
34492;DHT22;20737;49.908;8.126;2022-12-07T15:11:24;6.50;99.90
34492;DHT22;20737;49.908;8.126;2022-12-07T15:13:51;6.50;99.90
34492;DHT22;20737;49.908;8.126;2022-12-07T15:16:39;6.50;99.90
34492;DHT22;20737;49.908;8.126;2022-12-07T15:19:13;6.40;99.90
34492;DHT22;20737;49.908;8.126;2022-12-07T15:21:41;6.30;99.90
34492;DHT22;20737;49.908;8.126;2022-12-07T15:24:09;6.20;99.90
34492;DHT22;20737;49.908;8.126;2022-12-07T15:26:38;6.10;99.90
34492;DHT22;20737;49.908;8.126;2022-12-07T15:29:05;6.00;99.90
34492;DHT22;20737;49.908;8.126;2022-12-07T15:31:33;5.80;99.90
34492;DHT22;20737;49.908;8.126;2022-12-07T15:34:00;5.70;99.90
34492;DHT22;20737;49.908;8.126;2022-12-07T15:36:28;5.60;99.90
34492;DHT22;20737;49.908;8.126;2022-12-07T15:38:56;5.50;99.90
34492;DHT22;20737;49.908;8.126;2022-12-07T15:41:23;5.40;99.90
34492;DHT22;20737;49.908;8.126;2022-12-07T15:43:52;5.30;99.90
34492;DHT22;20737;49.908;8.126;2022-12-07T15:46:38;5.20;99.90
34492;DHT22;20737;49.908;8.126;2022-12-07T15:49:10;5.20;99.90
34492;DHT22;20737;49.908;8.126;2022-12-07T15:51:37;5.20;99.90
34492;DHT22;20737;49.908;8.126;2022-12-07T15:54:04;5.20;99.90
34492;DHT22;20737;49.908;8.126;2022-12-07T15:56:31;5.20;99.90
34492;DHT22;20737;49.908;8.126;2022-12-07T15:58:59;5.10;99.90
34492;DHT22;20737;49.908;8.126;2022-12-07T16:01:28;5.00;99.90
34492;DHT22;20737;49.908;8.126;2022-12-07T16:03:57;4.90;99.90
34492;DHT22;20737;49.908;8.126;2022-12-07T16:06:24;4.80;99.90
34492;DHT22;20737;49.908;8.126;2022-12-07T16:08:51;4.60;99.90
34492;DHT22;20737;49.908;8.126;2022-12-07T16:11:17;4.50;99.90
34492;DHT22;20737;49.908;8.126;2022-12-07T16:13:44;4.40;99.90
34492;DHT22;20737;49.908;8.126;2022-12-07T16:16:15;4.30;99.90
34492;DHT22;20737;49.908;8.126;2022-12-07T16:18:43;4.20;99.90
34492;DHT22;20737;49.908;8.126;2022-12-07T16:21:10;4.10;99.90
34492;DHT22;20737;49.908;8.126;2022-12-07T16:23:37;4.00;99.90
34492;DHT22;20737;49.908;8.126;2022-12-07T16:26:05;3.90;99.90
34492;DHT22;20737;49.908;8.126;2022-12-07T16:28:32;3.80;99.90
34492;DHT22;20737;49.908;8.126;2022-12-07T16:31:03;3.80;99.90
34492;DHT22;20737;49.908;8.126;2022-12-07T16:33:32;3.70;99.90